createdAt,value
2022-09-27T00:01:11.074Z,100.00
2022-09-27T00:03:38.137Z,100.00
2022-09-27T00:06:08.891Z,100.00
2022-09-27T00:08:36.534Z,100.00
2022-09-27T00:11:07.895Z,100.00
2022-09-27T00:13:34.574Z,100.00
2022-09-27T00:16:05.421Z,100.00
2022-09-27T00:18:32.923Z,100.00
2022-09-27T00:21:12.144Z,100.00
2022-09-27T00:23:39.029Z,100.00
2022-09-27T00:26:06.624Z,100.00
2022-09-27T00:28:34.039Z,100.00
2022-09-27T00:31:01.062Z,100.00
2022-09-27T00:33:27.782Z,100.00
2022-09-27T00:35:54.314Z,100.00
2022-09-27T00:38:21.021Z,100.00
2022-09-27T00:40:48.499Z,100.00
2022-09-27T00:43:22.376Z,100.00
2022-09-27T00:46:01.089Z,100.00
2022-09-27T00:48:31.963Z,100.00
2022-09-27T00:51:03.033Z,100.00
2022-09-27T00:53:34.228Z,100.00
2022-09-27T00:56:11.296Z,100.00
2022-09-27T00:58:44.144Z,100.00
2022-09-27T01:01:12.135Z,100.00
2022-09-27T01:03:44.672Z,100.00
2022-09-27T01:06:12.228Z,100.00
2022-09-27T01:08:39.204Z,100.00
2022-09-27T01:11:25.812Z,100.00
2022-09-27T01:14:10.715Z,100.00
2022-09-27T01:16:49.216Z,100.00
2022-09-27T01:19:27.787Z,100.00
2022-09-27T01:22:13.137Z,100.00
2022-09-27T01:24:50.797Z,100.00
2022-09-27T01:27:35.561Z,100.00
2022-09-27T01:30:14.513Z,100.00
2022-09-27T01:32:52.339Z,100.00
2022-09-27T01:35:31.867Z,100.00
2022-09-27T01:38:17.549Z,100.00
2022-09-27T01:40:59.141Z,100.00
2022-09-27T01:43:49.816Z,100.00
2022-09-27T01:46:23.457Z,100.00
2022-09-27T01:48:51.496Z,100.00
2022-09-27T01:51:28.366Z,100.00
2022-09-27T01:53:59.757Z,100.00
2022-09-27T01:56:37.104Z,100.00
2022-09-27T01:59:15.524Z,100.00
2022-09-27T02:01:47.742Z,100.00
2022-09-27T02:04:20.904Z,100.00
2022-09-27T02:06:50.819Z,100.00
2022-09-27T02:09:23.461Z,100.00
2022-09-27T02:11:56.404Z,100.00
2022-09-27T02:14:41.687Z,100.00
2022-09-27T02:17:26.342Z,100.00
2022-09-27T02:20:07.876Z,100.00
2022-09-27T02:22:42.196Z,100.00
2022-09-27T02:25:24.391Z,100.00
2022-09-27T02:27:59.073Z,100.00
2022-09-27T02:30:25.613Z,100.00
2022-09-27T02:32:52.684Z,100.00
2022-09-27T02:35:24.869Z,100.00
2022-09-27T02:37:51.551Z,100.00
2022-09-27T02:40:18.071Z,100.00
2022-09-27T02:42:45.555Z,100.00
2022-09-27T02:45:14.996Z,100.00
2022-09-27T02:48:10.018Z,100.00
2022-09-27T02:50:54.899Z,100.00
2022-09-27T02:54:01.347Z,100.00
2022-09-27T02:56:49.844Z,100.00
2022-09-27T02:59:29.731Z,100.00
2022-09-27T03:02:15.027Z,100.00
2022-09-27T03:04:56.608Z,100.00
2022-09-27T03:07:23.344Z,100.00
2022-09-27T03:09:52.032Z,100.00
2022-09-27T03:12:22.685Z,100.00
2022-09-27T03:14:49.467Z,100.00
2022-09-27T03:17:15.945Z,100.00
2022-09-27T03:19:42.259Z,100.00
2022-09-27T03:22:08.715Z,100.00
2022-09-27T03:24:35.061Z,100.00
2022-09-27T03:27:01.495Z,100.00
2022-09-27T03:29:27.905Z,100.00
2022-09-27T03:31:54.320Z,100.00
2022-09-27T03:34:20.735Z,100.00
2022-09-27T03:36:47.061Z,100.00
2022-09-27T03:39:13.470Z,100.00
2022-09-27T03:41:39.849Z,100.00
2022-09-27T03:44:06.663Z,100.00
2022-09-27T03:46:33.100Z,100.00
2022-09-27T03:49:00.263Z,100.00
2022-09-27T03:51:27.112Z,100.00
2022-09-27T03:53:53.470Z,100.00
2022-09-27T03:56:19.813Z,100.00
2022-09-27T03:58:46.290Z,100.00
2022-09-27T04:01:12.663Z,100.00
2022-09-27T04:03:39.283Z,100.00
2022-09-27T04:06:06.221Z,100.00
2022-09-27T04:08:32.747Z,100.00
2022-09-27T04:10:59.283Z,100.00
2022-09-27T04:13:25.664Z,100.00
2022-09-27T04:15:52.617Z,100.00
2022-09-27T04:18:19.033Z,100.00
2022-09-27T04:20:45.430Z,100.00
2022-09-27T04:23:12.301Z,100.00
2022-09-27T04:25:39.814Z,100.00
2022-09-27T04:28:06.453Z,100.00
2022-09-27T04:30:32.889Z,100.00
2022-09-27T04:32:59.288Z,100.00
2022-09-27T04:35:44.463Z,100.00
2022-09-27T04:38:10.798Z,100.00
2022-09-27T04:40:37.988Z,100.00
2022-09-27T04:43:04.500Z,100.00
2022-09-27T04:45:31.454Z,100.00
2022-09-27T04:47:57.832Z,100.00
2022-09-27T04:50:24.174Z,100.00
2022-09-27T04:52:52.171Z,100.00
2022-09-27T04:55:20.434Z,100.00
2022-09-27T04:57:47.816Z,100.00
2022-09-27T05:00:17.153Z,100.00
2022-09-27T05:02:44.701Z,100.00
2022-09-27T05:05:11.554Z,100.00
2022-09-27T05:07:39.185Z,100.00
2022-09-27T05:10:06.605Z,100.00
2022-09-27T05:12:33.140Z,100.00
2022-09-27T05:14:59.656Z,100.00
2022-09-27T05:17:26.025Z,100.00
2022-09-27T05:19:52.514Z,100.00
2022-09-27T05:22:19.249Z,100.00
2022-09-27T05:24:45.840Z,100.00
2022-09-27T05:27:20.483Z,100.00
2022-09-27T05:29:47.945Z,100.00
2022-09-27T05:32:15.180Z,100.00
2022-09-27T05:34:41.973Z,100.00
2022-09-27T05:37:08.757Z,100.00
2022-09-27T05:39:35.166Z,100.00
2022-09-27T05:42:02.855Z,100.00
2022-09-27T05:44:29.208Z,100.00
2022-09-27T05:46:55.702Z,100.00
2022-09-27T05:49:22.042Z,100.00
2022-09-27T05:51:48.473Z,100.00
2022-09-27T05:54:15.056Z,100.00
2022-09-27T05:56:41.538Z,100.00
2022-09-27T05:59:07.883Z,100.00
2022-09-27T06:01:35.664Z,100.00
2022-09-27T06:04:03.511Z,100.00
2022-09-27T06:06:29.889Z,100.00
2022-09-27T06:08:56.273Z,100.00
2022-09-27T06:11:22.642Z,100.00
2022-09-27T06:13:48.994Z,100.00
2022-09-27T06:16:15.563Z,100.00
2022-09-27T06:18:43.072Z,100.00
2022-09-27T06:21:09.416Z,100.00
2022-09-27T06:23:35.899Z,100.00
2022-09-27T06:26:07.851Z,100.00
2022-09-27T06:28:37.064Z,100.00
2022-09-27T06:31:08.102Z,100.00
2022-09-27T06:33:35.644Z,100.00
2022-09-27T06:36:03.634Z,100.00
2022-09-27T06:38:30.377Z,100.00
2022-09-27T06:41:01.859Z,100.00
2022-09-27T06:43:28.404Z,100.00
2022-09-27T06:45:55.136Z,100.00
2022-09-27T06:48:22.378Z,100.00
2022-09-27T06:50:49.113Z,100.00
2022-09-27T06:53:16.636Z,100.00
2022-09-27T06:55:43.233Z,100.00
2022-09-27T06:58:29.867Z,100.00
2022-09-27T07:00:56.442Z,100.00
2022-09-27T07:03:24.525Z,100.00
2022-09-27T07:06:04.840Z,100.00
2022-09-27T07:08:31.286Z,100.00
2022-09-27T07:11:07.847Z,100.00
2022-09-27T07:13:40.150Z,100.00
2022-09-27T07:16:07.236Z,100.00
2022-09-27T07:18:33.769Z,100.00
2022-09-27T07:21:01.347Z,100.00
2022-09-27T07:23:28.118Z,100.00
2022-09-27T07:25:55.014Z,100.00
2022-09-27T07:28:22.252Z,100.00
2022-09-27T07:30:51.720Z,100.00
2022-09-27T07:33:18.087Z,100.00
2022-09-27T07:35:44.407Z,100.00
2022-09-27T07:38:13.345Z,100.00
2022-09-27T07:40:40.715Z,100.00
2022-09-27T07:43:09.308Z,100.00
2022-09-27T07:45:36.709Z,99.92
2022-09-27T07:48:08.016Z,98.98
2022-09-27T07:50:35.183Z,98.94
2022-09-27T07:53:01.562Z,98.91
2022-09-27T07:55:27.990Z,99.04
2022-09-27T07:58:02.901Z,99.03
2022-09-27T08:00:29.476Z,99.15
2022-09-27T08:02:55.889Z,99.41
2022-09-27T08:05:22.226Z,99.47
2022-09-27T08:07:53.727Z,99.41
2022-09-27T08:10:20.555Z,99.92
2022-09-27T08:12:46.974Z,99.99
2022-09-27T08:15:13.403Z,99.86
2022-09-27T08:17:39.741Z,100.00
2022-09-27T08:20:06.737Z,100.00
2022-09-27T08:22:33.143Z,100.00
2022-09-27T08:24:59.631Z,99.83
2022-09-27T08:27:25.981Z,99.60
2022-09-27T08:29:52.360Z,99.55
2022-09-27T08:32:23.061Z,99.51
2022-09-27T08:34:50.038Z,99.62
2022-09-27T08:37:16.382Z,99.36
2022-09-27T08:39:46.962Z,98.62
2022-09-27T08:42:54.058Z,98.43
2022-09-27T08:45:31.293Z,98.00
2022-09-27T08:48:04.244Z,97.90
2022-09-27T08:50:40.113Z,98.01
2022-09-27T08:53:21.817Z,97.93
2022-09-27T08:55:51.013Z,96.65
2022-09-27T08:58:26.095Z,96.86
2022-09-27T09:01:06.611Z,96.68
2022-09-27T09:03:36.442Z,96.30
2022-09-27T09:06:19.873Z,96.35
2022-09-27T09:09:24.115Z,96.30
2022-09-27T09:12:47.335Z,96.54
2022-09-27T09:15:56.300Z,96.31
2022-09-27T09:18:22.587Z,96.39
2022-09-27T09:21:13.305Z,96.48
2022-09-27T09:24:11.779Z,97.10
2022-09-27T09:27:07.511Z,97.08
2022-09-27T09:29:58.326Z,96.73
2022-09-27T09:32:44.559Z,96.31
2022-09-27T09:35:20.188Z,96.21
2022-09-27T09:37:53.625Z,96.35
2022-09-27T09:40:49.447Z,96.24
2022-09-27T09:43:21.255Z,96.30
2022-09-27T09:45:55.149Z,96.21
2022-09-27T09:48:36.888Z,96.34
2022-09-27T09:51:09.351Z,96.15
2022-09-27T09:53:51.607Z,96.06
2022-09-27T09:56:24.756Z,96.02
2022-09-27T09:59:15.226Z,95.96
2022-09-27T10:01:43.990Z,95.10
2022-09-27T10:04:22.127Z,94.75
2022-09-27T10:06:48.815Z,94.65
2022-09-27T10:09:24.256Z,94.55
2022-09-27T10:11:50.855Z,94.13
2022-09-27T10:14:19.717Z,92.71
2022-09-27T10:16:50.071Z,93.36
2022-09-27T10:19:26.315Z,92.92
2022-09-27T10:21:52.821Z,92.68
2022-09-27T10:24:22.268Z,92.50
2022-09-27T10:26:50.976Z,91.80
2022-09-27T10:29:23.455Z,92.37
2022-09-27T10:31:50.620Z,92.48
2022-09-27T10:34:27.052Z,91.61
2022-09-27T10:37:13.310Z,92.28
2022-09-27T10:39:41.446Z,91.63
2022-09-27T10:42:38.491Z,92.15
2022-09-27T10:45:20.408Z,92.73
2022-09-27T10:47:47.006Z,92.71
2022-09-27T10:50:45.935Z,91.54
2022-09-27T10:53:20.672Z,90.94
2022-09-27T10:55:50.042Z,90.26
2022-09-27T10:58:45.933Z,90.46
2022-09-27T11:01:12.511Z,90.17
2022-09-27T11:03:48.348Z,91.23
2022-09-27T11:06:24.067Z,89.98
2022-09-27T11:08:55.684Z,90.26
2022-09-27T11:11:28.470Z,89.75
2022-09-27T11:14:03.011Z,90.02
2022-09-27T11:16:51.257Z,90.37
2022-09-27T11:19:35.263Z,89.52
2022-09-27T11:22:35.723Z,90.18
2022-09-27T11:25:31.886Z,90.37
2022-09-27T11:28:28.863Z,90.58
2022-09-27T11:31:03.793Z,90.69
2022-09-27T11:33:31.145Z,90.75
2022-09-27T11:36:22.695Z,90.64
2022-09-27T11:39:02.951Z,90.87
2022-09-27T11:41:56.048Z,91.12
2022-09-27T11:44:47.702Z,90.74
2022-09-27T11:47:25.593Z,91.41
2022-09-27T11:50:18.626Z,90.75
2022-09-27T11:53:03.380Z,90.25
2022-09-27T11:55:39.133Z,91.02
2022-09-27T11:58:30.838Z,91.55
2022-09-27T12:00:57.104Z,91.16
2022-09-27T12:03:46.253Z,90.48
2022-09-27T12:06:36.500Z,91.23
2022-09-27T12:09:19.712Z,90.63
2022-09-27T12:11:50.479Z,90.21
2022-09-27T12:14:38.300Z,89.84
2022-09-27T12:17:16.084Z,90.07
2022-09-27T12:19:50.377Z,90.03
2022-09-27T12:22:40.295Z,90.10
2022-09-27T12:25:20.521Z,89.17
2022-09-27T12:27:52.047Z,89.27
2022-09-27T12:30:18.457Z,90.54
2022-09-27T12:32:56.722Z,90.48
2022-09-27T12:35:32.320Z,90.56
2022-09-27T12:38:01.472Z,91.10
2022-09-27T12:40:44.711Z,90.38
2022-09-27T12:43:31.766Z,90.94
2022-09-27T12:46:11.717Z,91.55
2022-09-27T12:48:50.475Z,91.83
2022-09-27T12:51:20.318Z,92.29
2022-09-27T12:54:00.240Z,92.46
2022-09-27T12:56:32.747Z,92.58
2022-09-27T12:59:07.307Z,92.63
2022-09-27T13:02:09.022Z,92.46
2022-09-27T13:05:03.087Z,92.82
2022-09-27T13:07:35.687Z,92.70
2022-09-27T13:10:24.807Z,92.92
2022-09-27T13:12:54.576Z,93.25
2022-09-27T13:15:25.647Z,92.86
2022-09-27T13:17:56.822Z,92.97
2022-09-27T13:20:35.377Z,92.93
2022-09-27T13:23:18.629Z,92.51
2022-09-27T13:25:55.903Z,92.46
2022-09-27T13:28:45.721Z,92.81
2022-09-27T13:31:15.956Z,92.32
2022-09-27T13:33:46.750Z,92.44
2022-09-27T13:36:16.122Z,92.57
2022-09-27T13:39:01.911Z,92.49
2022-09-27T13:41:53.336Z,92.05
2022-09-27T13:44:29.425Z,90.29
2022-09-27T13:47:00.565Z,90.02
2022-09-27T13:49:42.813Z,89.73
2022-09-27T13:52:28.552Z,89.99
2022-09-27T13:54:57.530Z,89.05
2022-09-27T13:57:46.055Z,87.89
2022-09-27T14:00:16.374Z,85.95
2022-09-27T14:02:55.550Z,84.39
2022-09-27T14:05:27.885Z,82.28
2022-09-27T14:07:56.164Z,81.50
2022-09-27T14:10:24.257Z,81.51
2022-09-27T14:12:52.998Z,81.60
2022-09-27T14:15:24.515Z,81.73
2022-09-27T14:17:51.781Z,81.87
2022-09-27T14:20:41.767Z,82.76
2022-09-27T14:23:23.431Z,81.73
2022-09-27T14:25:52.514Z,82.12
2022-09-27T14:28:30.845Z,82.65
2022-09-27T14:31:22.228Z,82.92
2022-09-27T14:33:50.225Z,84.01
2022-09-27T14:36:50.111Z,82.95
2022-09-27T14:39:22.733Z,82.28
2022-09-27T14:41:49.282Z,83.29
2022-09-27T14:44:18.996Z,83.72
2022-09-27T14:46:48.953Z,84.35
2022-09-27T14:49:23.444Z,85.22
2022-09-27T14:51:56.833Z,85.01
2022-09-27T14:54:26.898Z,85.47
2022-09-27T14:56:56.115Z,86.29
2022-09-27T14:59:30.692Z,87.02
2022-09-27T15:02:01.947Z,87.34
2022-09-27T15:04:34.214Z,87.35
2022-09-27T15:07:02.640Z,86.75
2022-09-27T15:09:33.091Z,87.43
2022-09-27T15:12:02.340Z,86.87
2022-09-27T15:14:32.925Z,87.02
2022-09-27T15:17:05.336Z,87.51
2022-09-27T15:19:33.523Z,87.16
2022-09-27T15:22:44.534Z,88.04
2022-09-27T15:25:37.476Z,88.48
2022-09-27T15:28:18.333Z,88.54
2022-09-27T15:30:57.832Z,89.03
2022-09-27T15:33:34.606Z,89.01
2022-09-27T15:36:04.102Z,89.02
2022-09-27T15:38:31.835Z,89.02
2022-09-27T15:41:01.825Z,89.24
2022-09-27T15:43:39.947Z,89.21
2022-09-27T15:46:27.407Z,89.79
2022-09-27T15:49:22.560Z,90.33
2022-09-27T15:51:51.922Z,90.52
2022-09-27T15:54:22.638Z,91.07
2022-09-27T15:56:55.042Z,91.31
2022-09-27T15:59:24.953Z,91.46
2022-09-27T16:01:52.786Z,91.67
2022-09-27T16:04:19.286Z,92.13
2022-09-27T16:06:46.059Z,92.19
2022-09-27T16:09:20.391Z,92.84
2022-09-27T16:11:48.267Z,93.09
2022-09-27T16:14:18.308Z,93.37
2022-09-27T16:16:49.179Z,93.47
2022-09-27T16:19:15.671Z,93.40
2022-09-27T16:21:42.897Z,93.69
2022-09-27T16:24:10.437Z,93.80
2022-09-27T16:26:37.315Z,94.13
2022-09-27T16:29:04.420Z,94.36
2022-09-27T16:31:30.935Z,94.36
2022-09-27T16:33:58.140Z,94.59
2022-09-27T16:36:24.594Z,94.91
2022-09-27T16:38:51.839Z,95.21
2022-09-27T16:41:20.508Z,95.43
2022-09-27T16:43:48.045Z,95.85
2022-09-27T16:46:18.842Z,96.31
2022-09-27T16:48:46.951Z,95.94
2022-09-27T16:51:37.387Z,95.57
2022-09-27T16:54:05.645Z,95.76
2022-09-27T16:56:33.313Z,95.83
2022-09-27T16:59:03.409Z,95.92
2022-09-27T17:01:31.136Z,95.80
2022-09-27T17:03:57.808Z,96.13
2022-09-27T17:06:24.667Z,96.18
2022-09-27T17:08:51.057Z,96.39
2022-09-27T17:11:19.419Z,96.49
2022-09-27T17:13:47.731Z,96.51
2022-09-27T17:16:14.246Z,96.67
2022-09-27T17:18:41.237Z,96.68
2022-09-27T17:21:08.968Z,96.78
2022-09-27T17:23:35.851Z,96.88
2022-09-27T17:26:19.521Z,97.04
2022-09-27T17:28:46.510Z,96.76
2022-09-27T17:31:15.622Z,97.01
2022-09-27T17:33:45.173Z,96.85
2022-09-27T17:36:17.333Z,97.05
2022-09-27T17:38:45.404Z,97.06
2022-09-27T17:41:14.652Z,96.97
2022-09-27T17:43:51.979Z,97.25
2022-09-27T17:46:20.348Z,97.30
2022-09-27T17:49:06.134Z,97.38
2022-09-27T17:51:33.972Z,97.53
2022-09-27T17:54:00.629Z,97.65
2022-09-27T17:56:27.291Z,97.71
2022-09-27T17:58:55.668Z,97.92
2022-09-27T18:01:24.420Z,97.62
2022-09-27T18:03:55.681Z,97.76
2022-09-27T18:06:23.469Z,97.75
2022-09-27T18:08:50.778Z,97.63
2022-09-27T18:11:25.222Z,97.81
2022-09-27T18:13:51.544Z,97.74
2022-09-27T18:16:19.026Z,97.96
2022-09-27T18:18:48.177Z,97.64
2022-09-27T18:21:21.743Z,97.58
2022-09-27T18:23:51.489Z,97.64
2022-09-27T18:26:19.055Z,97.45
2022-09-27T18:28:45.647Z,97.86
2022-09-27T18:31:17.566Z,97.90
2022-09-27T18:33:44.057Z,97.92
2022-09-27T18:36:19.296Z,98.01
2022-09-27T18:38:47.328Z,98.04
2022-09-27T18:41:16.304Z,98.19
2022-09-27T18:43:44.713Z,98.38
2022-09-27T18:46:34.395Z,98.49
2022-09-27T18:49:05.315Z,98.59
2022-09-27T18:51:32.043Z,98.75
2022-09-27T18:54:01.043Z,98.87
2022-09-27T18:56:28.836Z,98.84
2022-09-27T18:58:56.216Z,99.07
2022-09-27T19:01:23.934Z,99.17
2022-09-27T19:03:50.401Z,99.44
2022-09-27T19:06:22.119Z,99.38
2022-09-27T19:08:54.379Z,99.72
2022-09-27T19:11:20.772Z,99.71
2022-09-27T19:13:51.729Z,99.89
2022-09-27T19:16:20.806Z,100.00
2022-09-27T19:18:48.433Z,100.00
2022-09-27T19:21:19.294Z,99.88
2022-09-27T19:23:45.978Z,100.00
2022-09-27T19:26:15.031Z,100.00
2022-09-27T19:28:43.128Z,100.00
2022-09-27T19:31:20.982Z,100.00
2022-09-27T19:33:47.715Z,100.00
2022-09-27T19:36:16.852Z,100.00
2022-09-27T19:38:43.850Z,100.00
2022-09-27T19:41:12.523Z,100.00
2022-09-27T19:43:39.467Z,100.00
2022-09-27T19:46:17.360Z,100.00
2022-09-27T19:48:45.243Z,100.00
2022-09-27T19:51:15.514Z,100.00
2022-09-27T19:53:42.016Z,100.00
2022-09-27T19:56:10.114Z,100.00
2022-09-27T19:58:38.414Z,100.00
2022-09-27T20:01:13.794Z,100.00
2022-09-27T20:03:42.916Z,100.00
2022-09-27T20:06:12.169Z,100.00
2022-09-27T20:08:38.675Z,100.00
2022-09-27T20:11:08.451Z,100.00
2022-09-27T20:13:36.015Z,100.00
2022-09-27T20:16:08.392Z,100.00
2022-09-27T20:18:39.090Z,100.00
2022-09-27T20:21:05.962Z,100.00
2022-09-27T20:23:34.311Z,100.00
2022-09-27T20:26:02.395Z,100.00
2022-09-27T20:28:29.898Z,100.00
2022-09-27T20:30:58.097Z,100.00
2022-09-27T20:33:44.028Z,100.00
2022-09-27T20:36:12.857Z,100.00
2022-09-27T20:38:43.645Z,100.00
2022-09-27T20:41:11.717Z,100.00
2022-09-27T20:43:38.978Z,100.00
2022-09-27T20:46:12.024Z,100.00
2022-09-27T20:48:38.431Z,100.00
2022-09-27T20:51:05.697Z,100.00
2022-09-27T20:53:32.775Z,100.00
2022-09-27T20:56:02.669Z,100.00
2022-09-27T20:58:30.106Z,100.00
2022-09-27T21:00:56.638Z,100.00
2022-09-27T21:03:23.086Z,100.00
2022-09-27T21:05:56.570Z,100.00
2022-09-27T21:08:23.608Z,100.00
2022-09-27T21:10:52.649Z,100.00
2022-09-27T21:13:19.659Z,100.00
2022-09-27T21:15:46.377Z,100.00
2022-09-27T21:18:13.362Z,100.00
2022-09-27T21:20:39.755Z,100.00
2022-09-27T21:23:06.084Z,100.00
2022-09-27T21:25:32.444Z,100.00
2022-09-27T21:27:58.880Z,100.00
2022-09-27T21:30:25.343Z,100.00
2022-09-27T21:32:55.703Z,100.00
2022-09-27T21:35:22.627Z,100.00
2022-09-27T21:37:49.475Z,100.00
2022-09-27T21:40:16.911Z,100.00
2022-09-27T21:42:43.327Z,100.00
2022-09-27T21:45:10.266Z,100.00
2022-09-27T21:47:36.630Z,100.00
2022-09-27T21:50:03.146Z,100.00
2022-09-27T21:52:29.581Z,100.00
2022-09-27T21:54:56.800Z,100.00
2022-09-27T21:57:23.126Z,100.00
2022-09-27T21:59:49.680Z,100.00
2022-09-27T22:02:19.316Z,100.00
2022-09-27T22:04:45.823Z,100.00
2022-09-27T22:07:12.269Z,100.00
2022-09-27T22:09:38.799Z,100.00
2022-09-27T22:12:06.236Z,100.00
2022-09-27T22:14:34.406Z,100.00
2022-09-27T22:17:00.784Z,100.00
2022-09-27T22:19:27.314Z,100.00
2022-09-27T22:21:53.660Z,100.00
2022-09-27T22:24:20.094Z,100.00
2022-09-27T22:26:50.053Z,100.00
2022-09-27T22:29:16.767Z,100.00
2022-09-27T22:31:43.385Z,100.00
2022-09-27T22:34:17.032Z,100.00
2022-09-27T22:36:44.000Z,100.00
2022-09-27T22:39:10.544Z,100.00
2022-09-27T22:41:36.984Z,100.00
2022-09-27T22:44:03.421Z,100.00
2022-09-27T22:46:29.805Z,100.00
2022-09-27T22:48:56.200Z,100.00
2022-09-27T22:51:22.684Z,100.00
2022-09-27T22:53:49.459Z,100.00
2022-09-27T22:56:20.148Z,100.00
2022-09-27T22:58:48.295Z,100.00
2022-09-27T23:01:22.769Z,100.00
2022-09-27T23:03:51.400Z,100.00
2022-09-27T23:06:19.753Z,100.00
2022-09-27T23:08:47.302Z,100.00
2022-09-27T23:11:17.710Z,100.00
2022-09-27T23:13:44.609Z,100.00
2022-09-27T23:16:13.625Z,100.00
2022-09-27T23:18:40.189Z,100.00
2022-09-27T23:21:08.927Z,100.00
2022-09-27T23:23:37.256Z,100.00
2022-09-27T23:26:06.654Z,100.00
2022-09-27T23:28:34.059Z,100.00
2022-09-27T23:31:10.924Z,100.00
2022-09-27T23:33:39.117Z,100.00
2022-09-27T23:36:10.655Z,100.00
2022-09-27T23:38:41.096Z,100.00
2022-09-27T23:41:08.256Z,100.00
2022-09-27T23:43:35.280Z,100.00
2022-09-27T23:46:03.095Z,100.00
2022-09-27T23:48:29.446Z,100.00
2022-09-27T23:50:57.159Z,100.00
2022-09-27T23:53:24.119Z,100.00
2022-09-27T23:56:04.722Z,100.00
2022-09-27T23:58:39.558Z,100.00
